sensor_id;sensor_type;location;lat;lon;timestamp;temperature;humidity
43999;DHT22;51319;52.162;5.302;2023-10-19T00:01:23;10.20;99.90
43999;DHT22;51319;52.162;5.302;2023-10-19T00:03:55;10.20;99.90
43999;DHT22;51319;52.162;5.302;2023-10-19T00:06:26;10.20;99.90
43999;DHT22;51319;52.162;5.302;2023-10-19T00:08:53;10.20;99.90
43999;DHT22;51319;52.162;5.302;2023-10-19T00:11:19;10.20;99.90
43999;DHT22;51319;52.162;5.302;2023-10-19T00:13:51;10.20;99.90
43999;DHT22;51319;52.162;5.302;2023-10-19T00:16:21;10.30;99.90
43999;DHT22;51319;52.162;5.302;2023-10-19T00:18:57;10.30;99.90
43999;DHT22;51319;52.162;5.302;2023-10-19T00:21:27;10.30;99.90
43999;DHT22;51319;52.162;5.302;2023-10-19T00:23:55;10.30;99.90
43999;DHT22;51319;52.162;5.302;2023-10-19T00:26:24;10.30;99.90
43999;DHT22;51319;52.162;5.302;2023-10-19T00:28:56;10.40;99.90
43999;DHT22;51319;52.162;5.302;2023-10-19T00:31:27;10.40;99.90
43999;DHT22;51319;52.162;5.302;2023-10-19T00:33:55;10.40;99.90
43999;DHT22;51319;52.162;5.302;2023-10-19T00:36:22;10.50;99.90
43999;DHT22;51319;52.162;5.302;2023-10-19T00:38:50;10.40;99.90
43999;DHT22;51319;52.162;5.302;2023-10-19T00:41:18;10.50;99.90
43999;DHT22;51319;52.162;5.302;2023-10-19T00:43:51;10.50;99.90
43999;DHT22;51319;52.162;5.302;2023-10-19T00:46:24;10.60;99.90
43999;DHT22;51319;52.162;5.302;2023-10-19T00:49:00;10.60;99.90
43999;DHT22;51319;52.162;5.302;2023-10-19T00:51:35;10.60;99.90
43999;DHT22;51319;52.162;5.302;2023-10-19T00:54:23;10.70;99.90
43999;DHT22;51319;52.162;5.302;2023-10-19T00:57:07;10.70;99.90
43999;DHT22;51319;52.162;5.302;2023-10-19T00:59:38;10.70;99.90
43999;DHT22;51319;52.162;5.302;2023-10-19T01:02:21;10.80;99.90
43999;DHT22;51319;52.162;5.302;2023-10-19T01:04:48;10.80;99.90
43999;DHT22;51319;52.162;5.302;2023-10-19T01:07:34;10.80;99.90
43999;DHT22;51319;52.162;5.302;2023-10-19T01:10:11;10.90;99.90
43999;DHT22;51319;52.162;5.302;2023-10-19T01:12:39;10.90;99.90
43999;DHT22;51319;52.162;5.302;2023-10-19T01:15:07;11.00;99.90
43999;DHT22;51319;52.162;5.302;2023-10-19T01:17:44;11.00;99.90
43999;DHT22;51319;52.162;5.302;2023-10-19T01:20:12;11.00;99.90
43999;DHT22;51319;52.162;5.302;2023-10-19T01:22:47;11.10;99.90
43999;DHT22;51319;52.162;5.302;2023-10-19T01:25:16;11.10;99.90
43999;DHT22;51319;52.162;5.302;2023-10-19T01:27:43;11.20;99.90
43999;DHT22;51319;52.162;5.302;2023-10-19T01:30:10;11.20;99.90
43999;DHT22;51319;52.162;5.302;2023-10-19T01:32:40;11.20;99.90
43999;DHT22;51319;52.162;5.302;2023-10-19T01:35:09;11.30;99.90
43999;DHT22;51319;52.162;5.302;2023-10-19T01:37:37;11.30;99.90
43999;DHT22;51319;52.162;5.302;2023-10-19T01:40:05;11.30;99.90
43999;DHT22;51319;52.162;5.302;2023-10-19T01:42:32;11.40;99.90
43999;DHT22;51319;52.162;5.302;2023-10-19T01:44:58;11.40;99.90
43999;DHT22;51319;52.162;5.302;2023-10-19T01:47:26;11.50;99.90
43999;DHT22;51319;52.162;5.302;2023-10-19T01:49:54;11.50;99.90
43999;DHT22;51319;52.162;5.302;2023-10-19T01:52:21;11.60;99.90
43999;DHT22;51319;52.162;5.302;2023-10-19T01:54:51;11.60;99.90
43999;DHT22;51319;52.162;5.302;2023-10-19T01:57:25;11.60;99.90
43999;DHT22;51319;52.162;5.302;2023-10-19T01:59:52;11.70;99.90
43999;DHT22;51319;52.162;5.302;2023-10-19T02:02:19;11.80;99.90
43999;DHT22;51319;52.162;5.302;2023-10-19T02:04:48;11.80;99.90
43999;DHT22;51319;52.162;5.302;2023-10-19T02:07:18;11.90;99.90
43999;DHT22;51319;52.162;5.302;2023-10-19T02:09:45;11.90;99.90
43999;DHT22;51319;52.162;5.302;2023-10-19T02:12:13;12.00;99.90
43999;DHT22;51319;52.162;5.302;2023-10-19T02:14:40;12.10;99.90
43999;DHT22;51319;52.162;5.302;2023-10-19T02:17:07;12.10;99.90
43999;DHT22;51319;52.162;5.302;2023-10-19T02:19:39;12.20;99.90
43999;DHT22;51319;52.162;5.302;2023-10-19T02:22:06;12.20;99.90
43999;DHT22;51319;52.162;5.302;2023-10-19T02:24:35;12.30;99.90
43999;DHT22;51319;52.162;5.302;2023-10-19T02:27:03;12.30;99.90
43999;DHT22;51319;52.162;5.302;2023-10-19T02:29:33;12.40;99.90
43999;DHT22;51319;52.162;5.302;2023-10-19T02:32:03;12.40;99.90
43999;DHT22;51319;52.162;5.302;2023-10-19T02:34:30;12.50;99.90
43999;DHT22;51319;52.162;5.302;2023-10-19T02:36:58;12.50;99.90
43999;DHT22;51319;52.162;5.302;2023-10-19T02:39:25;12.50;99.90
43999;DHT22;51319;52.162;5.302;2023-10-19T02:41:55;12.50;99.90
43999;DHT22;51319;52.162;5.302;2023-10-19T02:44:23;12.60;99.90
43999;DHT22;51319;52.162;5.302;2023-10-19T02:46:55;12.60;99.90
43999;DHT22;51319;52.162;5.302;2023-10-19T02:49:36;12.60;99.90
43999;DHT22;51319;52.162;5.302;2023-10-19T02:52:06;12.70;99.90
43999;DHT22;51319;52.162;5.302;2023-10-19T02:54:33;12.70;99.90
43999;DHT22;51319;52.162;5.302;2023-10-19T02:57:02;12.70;99.90
43999;DHT22;51319;52.162;5.302;2023-10-19T02:59:34;12.80;99.90
43999;DHT22;51319;52.162;5.302;2023-10-19T03:02:01;12.80;99.90
43999;DHT22;51319;52.162;5.302;2023-10-19T03:04:34;12.80;99.90
43999;DHT22;51319;52.162;5.302;2023-10-19T03:07:04;12.90;99.90
43999;DHT22;51319;52.162;5.302;2023-10-19T03:09:31;12.90;99.90
43999;DHT22;51319;52.162;5.302;2023-10-19T03:12:03;12.90;99.90
43999;DHT22;51319;52.162;5.302;2023-10-19T03:14:31;12.90;99.90
43999;DHT22;51319;52.162;5.302;2023-10-19T03:16:58;12.90;99.90
43999;DHT22;51319;52.162;5.302;2023-10-19T03:19:29;13.00;99.90
43999;DHT22;51319;52.162;5.302;2023-10-19T03:21:56;12.90;99.90
43999;DHT22;51319;52.162;5.302;2023-10-19T03:24:26;13.00;99.90
43999;DHT22;51319;52.162;5.302;2023-10-19T03:29:49;13.00;99.90
43999;DHT22;51319;52.162;5.302;2023-10-19T03:32:23;13.00;99.90
43999;DHT22;51319;52.162;5.302;2023-10-19T03:34:54;13.10;99.90
43999;DHT22;51319;52.162;5.302;2023-10-19T03:37:27;13.10;99.90
43999;DHT22;51319;52.162;5.302;2023-10-19T03:39:58;13.20;99.90
43999;DHT22;51319;52.162;5.302;2023-10-19T03:42:25;13.20;99.90
43999;DHT22;51319;52.162;5.302;2023-10-19T03:44:54;13.20;99.90
43999;DHT22;51319;52.162;5.302;2023-10-19T03:47:22;13.20;99.90
43999;DHT22;51319;52.162;5.302;2023-10-19T03:49:53;13.30;99.90
43999;DHT22;51319;52.162;5.302;2023-10-19T03:52:20;13.30;99.90
43999;DHT22;51319;52.162;5.302;2023-10-19T03:54:47;13.30;99.90
43999;DHT22;51319;52.162;5.302;2023-10-19T03:57:15;13.30;99.90
43999;DHT22;51319;52.162;5.302;2023-10-19T03:59:52;13.30;99.90
43999;DHT22;51319;52.162;5.302;2023-10-19T04:02:24;13.30;99.90
43999;DHT22;51319;52.162;5.302;2023-10-19T04:04:52;13.30;99.90
43999;DHT22;51319;52.162;5.302;2023-10-19T04:07:19;13.40;99.90
43999;DHT22;51319;52.162;5.302;2023-10-19T04:09:54;13.40;99.90
43999;DHT22;51319;52.162;5.302;2023-10-19T04:12:33;13.40;99.90
43999;DHT22;51319;52.162;5.302;2023-10-19T04:15:02;13.40;99.90
43999;DHT22;51319;52.162;5.302;2023-10-19T04:17:48;13.40;99.90
43999;DHT22;51319;52.162;5.302;2023-10-19T04:20:16;13.40;99.90
43999;DHT22;51319;52.162;5.302;2023-10-19T04:22:47;13.30;99.90
43999;DHT22;51319;52.162;5.302;2023-10-19T04:25:14;13.20;99.90
43999;DHT22;51319;52.162;5.302;2023-10-19T04:27:56;13.10;99.90
43999;DHT22;51319;52.162;5.302;2023-10-19T04:30:24;13.00;99.90
43999;DHT22;51319;52.162;5.302;2023-10-19T04:32:52;12.90;99.90
43999;DHT22;51319;52.162;5.302;2023-10-19T04:35:28;12.90;99.90
43999;DHT22;51319;52.162;5.302;2023-10-19T04:38:00;12.80;99.90
43999;DHT22;51319;52.162;5.302;2023-10-19T04:40:28;12.80;99.90
43999;DHT22;51319;52.162;5.302;2023-10-19T04:42:55;12.70;99.90
43999;DHT22;51319;52.162;5.302;2023-10-19T04:45:22;12.70;99.90
43999;DHT22;51319;52.162;5.302;2023-10-19T04:47:50;12.70;99.90
43999;DHT22;51319;52.162;5.302;2023-10-19T04:50:19;12.60;99.90
43999;DHT22;51319;52.162;5.302;2023-10-19T04:52:46;12.70;99.90
43999;DHT22;51319;52.162;5.302;2023-10-19T04:55:14;12.70;99.90
43999;DHT22;51319;52.162;5.302;2023-10-19T04:57:41;12.80;99.90
43999;DHT22;51319;52.162;5.302;2023-10-19T05:00:08;12.80;99.90
43999;DHT22;51319;52.162;5.302;2023-10-19T05:02:40;12.80;99.90
43999;DHT22;51319;52.162;5.302;2023-10-19T05:05:07;12.80;99.90
43999;DHT22;51319;52.162;5.302;2023-10-19T05:07:35;12.90;99.90
43999;DHT22;51319;52.162;5.302;2023-10-19T05:10:02;12.90;99.90
43999;DHT22;51319;52.162;5.302;2023-10-19T05:12:32;13.00;99.90
43999;DHT22;51319;52.162;5.302;2023-10-19T05:14:59;12.90;99.90
43999;DHT22;51319;52.162;5.302;2023-10-19T05:17:25;13.00;99.90
43999;DHT22;51319;52.162;5.302;2023-10-19T05:19:54;13.00;99.90
43999;DHT22;51319;52.162;5.302;2023-10-19T05:22:21;13.10;99.90
43999;DHT22;51319;52.162;5.302;2023-10-19T05:24:49;13.10;99.90
43999;DHT22;51319;52.162;5.302;2023-10-19T05:27:16;13.10;99.90
43999;DHT22;51319;52.162;5.302;2023-10-19T05:29:44;13.20;99.90
43999;DHT22;51319;52.162;5.302;2023-10-19T05:32:11;13.20;99.90
43999;DHT22;51319;52.162;5.302;2023-10-19T05:34:38;13.20;99.90
43999;DHT22;51319;52.162;5.302;2023-10-19T05:37:05;13.30;99.90
43999;DHT22;51319;52.162;5.302;2023-10-19T05:39:32;13.30;99.90
43999;DHT22;51319;52.162;5.302;2023-10-19T05:42:01;13.30;99.90
43999;DHT22;51319;52.162;5.302;2023-10-19T05:44:29;13.40;99.90
43999;DHT22;51319;52.162;5.302;2023-10-19T05:46:58;13.40;99.90
43999;DHT22;51319;52.162;5.302;2023-10-19T05:49:26;13.40;99.90
43999;DHT22;51319;52.162;5.302;2023-10-19T05:51:53;13.40;99.90
43999;DHT22;51319;52.162;5.302;2023-10-19T05:54:20;13.50;99.90
43999;DHT22;51319;52.162;5.302;2023-10-19T05:56:50;13.50;99.90
43999;DHT22;51319;52.162;5.302;2023-10-19T05:59:18;13.50;99.90
43999;DHT22;51319;52.162;5.302;2023-10-19T06:01:45;13.50;99.90
43999;DHT22;51319;52.162;5.302;2023-10-19T06:04:15;13.50;99.90
43999;DHT22;51319;52.162;5.302;2023-10-19T06:06:46;13.50;99.90
43999;DHT22;51319;52.162;5.302;2023-10-19T06:09:14;13.60;99.90
43999;DHT22;51319;52.162;5.302;2023-10-19T06:11:42;13.60;99.90
43999;DHT22;51319;52.162;5.302;2023-10-19T06:14:10;13.60;99.90
43999;DHT22;51319;52.162;5.302;2023-10-19T06:16:37;13.60;99.90
43999;DHT22;51319;52.162;5.302;2023-10-19T06:19:04;13.60;99.90
43999;DHT22;51319;52.162;5.302;2023-10-19T06:21:32;13.60;99.90
43999;DHT22;51319;52.162;5.302;2023-10-19T06:24:00;13.70;99.90
43999;DHT22;51319;52.162;5.302;2023-10-19T06:26:28;13.70;99.90
43999;DHT22;51319;52.162;5.302;2023-10-19T06:28:55;13.70;99.90
43999;DHT22;51319;52.162;5.302;2023-10-19T06:31:26;13.70;99.90
43999;DHT22;51319;52.162;5.302;2023-10-19T06:33:53;13.70;99.90
43999;DHT22;51319;52.162;5.302;2023-10-19T06:36:20;13.70;99.90
43999;DHT22;51319;52.162;5.302;2023-10-19T06:38:47;13.70;99.90
43999;DHT22;51319;52.162;5.302;2023-10-19T06:41:17;13.70;99.90
43999;DHT22;51319;52.162;5.302;2023-10-19T06:43:45;13.70;99.90
43999;DHT22;51319;52.162;5.302;2023-10-19T06:46:12;13.70;99.90
43999;DHT22;51319;52.162;5.302;2023-10-19T06:48:39;13.80;99.90
43999;DHT22;51319;52.162;5.302;2023-10-19T06:51:06;13.80;99.90
43999;DHT22;51319;52.162;5.302;2023-10-19T06:53:33;13.70;99.90
43999;DHT22;51319;52.162;5.302;2023-10-19T06:56:01;13.80;99.90
43999;DHT22;51319;52.162;5.302;2023-10-19T06:58:28;13.80;99.90
43999;DHT22;51319;52.162;5.302;2023-10-19T07:00:55;13.70;99.90
43999;DHT22;51319;52.162;5.302;2023-10-19T07:03:26;13.70;99.90
43999;DHT22;51319;52.162;5.302;2023-10-19T07:05:55;13.80;99.90
43999;DHT22;51319;52.162;5.302;2023-10-19T07:08:23;13.80;99.90
43999;DHT22;51319;52.162;5.302;2023-10-19T07:10:50;13.80;99.90
43999;DHT22;51319;52.162;5.302;2023-10-19T07:13:17;13.80;99.90
43999;DHT22;51319;52.162;5.302;2023-10-19T07:15:44;13.90;99.90
43999;DHT22;51319;52.162;5.302;2023-10-19T07:18:11;13.90;99.90
43999;DHT22;51319;52.162;5.302;2023-10-19T07:20:40;13.90;99.90
43999;DHT22;51319;52.162;5.302;2023-10-19T07:23:09;14.00;99.90
43999;DHT22;51319;52.162;5.302;2023-10-19T07:25:46;14.00;99.90
43999;DHT22;51319;52.162;5.302;2023-10-19T07:28:24;14.00;99.90
43999;DHT22;51319;52.162;5.302;2023-10-19T07:30:52;14.00;99.90
43999;DHT22;51319;52.162;5.302;2023-10-19T07:33:19;14.10;99.90
43999;DHT22;51319;52.162;5.302;2023-10-19T07:35:47;14.10;99.90
43999;DHT22;51319;52.162;5.302;2023-10-19T07:38:14;14.20;99.90
43999;DHT22;51319;52.162;5.302;2023-10-19T07:40:41;14.20;99.90
43999;DHT22;51319;52.162;5.302;2023-10-19T07:48:39;14.30;99.90
43999;DHT22;51319;52.162;5.302;2023-10-19T07:53:41;14.40;99.90
43999;DHT22;51319;52.162;5.302;2023-10-19T07:56:08;14.40;99.90
43999;DHT22;51319;52.162;5.302;2023-10-19T07:58:35;14.50;99.90
43999;DHT22;51319;52.162;5.302;2023-10-19T08:01:02;14.50;99.90
43999;DHT22;51319;52.162;5.302;2023-10-19T08:03:29;14.50;99.90
43999;DHT22;51319;52.162;5.302;2023-10-19T08:05:56;14.50;99.90
43999;DHT22;51319;52.162;5.302;2023-10-19T08:26:58;14.70;99.90
43999;DHT22;51319;52.162;5.302;2023-10-19T08:29:26;14.80;99.90
43999;DHT22;51319;52.162;5.302;2023-10-19T08:31:53;14.80;99.90
43999;DHT22;51319;52.162;5.302;2023-10-19T08:34:20;14.80;99.90
43999;DHT22;51319;52.162;5.302;2023-10-19T08:36:49;14.80;99.90
43999;DHT22;51319;52.162;5.302;2023-10-19T08:39:16;14.80;99.90
43999;DHT22;51319;52.162;5.302;2023-10-19T08:41:44;14.90;99.90
43999;DHT22;51319;52.162;5.302;2023-10-19T08:44:12;14.90;99.90
43999;DHT22;51319;52.162;5.302;2023-10-19T08:46:42;14.90;99.90
43999;DHT22;51319;52.162;5.302;2023-10-19T08:49:13;15.00;99.90
43999;DHT22;51319;52.162;5.302;2023-10-19T08:51:44;15.00;99.90
43999;DHT22;51319;52.162;5.302;2023-10-19T08:54:14;15.10;99.90
43999;DHT22;51319;52.162;5.302;2023-10-19T08:56:43;15.20;99.90
43999;DHT22;51319;52.162;5.302;2023-10-19T08:59:11;15.20;99.90
43999;DHT22;51319;52.162;5.302;2023-10-19T09:01:38;15.40;99.90
43999;DHT22;51319;52.162;5.302;2023-10-19T09:04:05;15.50;99.90
43999;DHT22;51319;52.162;5.302;2023-10-19T09:06:37;15.60;99.90
43999;DHT22;51319;52.162;5.302;2023-10-19T09:09:10;15.70;99.90
43999;DHT22;51319;52.162;5.302;2023-10-19T09:11:43;15.90;99.90
43999;DHT22;51319;52.162;5.302;2023-10-19T09:14:10;16.20;99.90
43999;DHT22;51319;52.162;5.302;2023-10-19T09:19:10;16.80;99.90
43999;DHT22;51319;52.162;5.302;2023-10-19T09:21:37;16.90;99.90
43999;DHT22;51319;52.162;5.302;2023-10-19T09:24:06;17.00;99.90
43999;DHT22;51319;52.162;5.302;2023-10-19T09:26:35;17.30;99.90
43999;DHT22;51319;52.162;5.302;2023-10-19T09:29:03;17.40;99.90
43999;DHT22;51319;52.162;5.302;2023-10-19T09:31:30;18.00;99.90
43999;DHT22;51319;52.162;5.302;2023-10-19T09:33:57;18.30;99.90
43999;DHT22;51319;52.162;5.302;2023-10-19T09:42:07;17.70;99.90
43999;DHT22;51319;52.162;5.302;2023-10-19T09:44:41;17.50;99.90
43999;DHT22;51319;52.162;5.302;2023-10-19T10:23:17;20.00;99.90
43999;DHT22;51319;52.162;5.302;2023-10-19T10:25:48;19.70;99.90
43999;DHT22;51319;52.162;5.302;2023-10-19T10:28:16;19.50;99.90
43999;DHT22;51319;52.162;5.302;2023-10-19T10:33:52;19.40;99.90
43999;DHT22;51319;52.162;5.302;2023-10-19T10:36:21;19.20;99.90
43999;DHT22;51319;52.162;5.302;2023-10-19T10:38:50;19.10;99.90
43999;DHT22;51319;52.162;5.302;2023-10-19T10:41:20;19.00;99.90
43999;DHT22;51319;52.162;5.302;2023-10-19T10:43:50;18.90;99.90
43999;DHT22;51319;52.162;5.302;2023-10-19T10:46:20;18.70;99.90
43999;DHT22;51319;52.162;5.302;2023-10-19T10:48:48;18.60;99.90
43999;DHT22;51319;52.162;5.302;2023-10-19T10:51:16;18.50;99.90
43999;DHT22;51319;52.162;5.302;2023-10-19T10:53:43;18.50;99.90
43999;DHT22;51319;52.162;5.302;2023-10-19T11:06:58;18.30;99.90
43999;DHT22;51319;52.162;5.302;2023-10-19T11:09:26;18.40;99.90
43999;DHT22;51319;52.162;5.302;2023-10-19T11:11:54;18.50;99.90
43999;DHT22;51319;52.162;5.302;2023-10-19T11:14:21;18.70;99.90
43999;DHT22;51319;52.162;5.302;2023-10-19T11:16:53;18.90;99.90
43999;DHT22;51319;52.162;5.302;2023-10-19T11:19:20;19.00;99.90
43999;DHT22;51319;52.162;5.302;2023-10-19T11:21:54;19.00;99.90
43999;DHT22;51319;52.162;5.302;2023-10-19T11:24:26;19.00;99.90
43999;DHT22;51319;52.162;5.302;2023-10-19T11:26:56;19.10;99.90
43999;DHT22;51319;52.162;5.302;2023-10-19T11:29:23;19.10;99.90
43999;DHT22;51319;52.162;5.302;2023-10-19T11:31:58;19.10;99.90
43999;DHT22;51319;52.162;5.302;2023-10-19T11:34:26;20.00;99.90
43999;DHT22;51319;52.162;5.302;2023-10-19T11:36:56;20.90;98.40
43999;DHT22;51319;52.162;5.302;2023-10-19T11:39:23;20.80;96.70
43999;DHT22;51319;52.162;5.302;2023-10-19T11:41:50;20.60;97.10
43999;DHT22;51319;52.162;5.302;2023-10-19T11:44:17;20.50;96.90
43999;DHT22;51319;52.162;5.302;2023-10-19T11:46:45;20.30;96.70
43999;DHT22;51319;52.162;5.302;2023-10-19T11:49:12;21.10;98.50
43999;DHT22;51319;52.162;5.302;2023-10-19T11:51:39;22.00;97.10
43999;DHT22;51319;52.162;5.302;2023-10-19T11:54:05;22.50;97.60
43999;DHT22;51319;52.162;5.302;2023-10-19T11:56:32;23.70;97.30
43999;DHT22;51319;52.162;5.302;2023-10-19T11:58:59;24.70;96.00
43999;DHT22;51319;52.162;5.302;2023-10-19T12:01:27;24.70;92.20
43999;DHT22;51319;52.162;5.302;2023-10-19T12:03:53;24.10;92.40
43999;DHT22;51319;52.162;5.302;2023-10-19T12:06:21;23.50;92.10
43999;DHT22;51319;52.162;5.302;2023-10-19T12:08:50;22.90;91.00
43999;DHT22;51319;52.162;5.302;2023-10-19T12:11:17;22.30;90.40
43999;DHT22;51319;52.162;5.302;2023-10-19T12:13:48;21.90;91.10
43999;DHT22;51319;52.162;5.302;2023-10-19T12:16:16;21.60;90.80
43999;DHT22;51319;52.162;5.302;2023-10-19T12:18:43;21.30;91.30
43999;DHT22;51319;52.162;5.302;2023-10-19T12:21:10;21.10;91.80
43999;DHT22;51319;52.162;5.302;2023-10-19T12:23:44;21.00;92.30
43999;DHT22;51319;52.162;5.302;2023-10-19T12:26:11;20.80;92.20
43999;DHT22;51319;52.162;5.302;2023-10-19T12:28:41;20.50;92.20
43999;DHT22;51319;52.162;5.302;2023-10-19T12:31:08;20.30;92.40
43999;DHT22;51319;52.162;5.302;2023-10-19T12:33:36;20.10;92.60
43999;DHT22;51319;52.162;5.302;2023-10-19T12:36:03;20.00;92.90
43999;DHT22;51319;52.162;5.302;2023-10-19T12:38:51;19.90;93.10
43999;DHT22;51319;52.162;5.302;2023-10-19T12:41:20;19.90;93.30
43999;DHT22;51319;52.162;5.302;2023-10-19T12:43:47;19.80;93.60
43999;DHT22;51319;52.162;5.302;2023-10-19T12:46:14;19.80;93.70
43999;DHT22;51319;52.162;5.302;2023-10-19T12:48:43;19.70;93.70
43999;DHT22;51319;52.162;5.302;2023-10-19T12:51:09;19.60;93.70
43999;DHT22;51319;52.162;5.302;2023-10-19T12:53:38;19.50;93.80
43999;DHT22;51319;52.162;5.302;2023-10-19T12:56:05;19.40;93.80
43999;DHT22;51319;52.162;5.302;2023-10-19T12:58:34;19.30;94.00
43999;DHT22;51319;52.162;5.302;2023-10-19T13:01:01;19.20;94.20
43999;DHT22;51319;52.162;5.302;2023-10-19T13:03:32;19.10;94.40
43999;DHT22;51319;52.162;5.302;2023-10-19T13:06:00;19.10;94.50
43999;DHT22;51319;52.162;5.302;2023-10-19T13:08:34;19.00;94.60
43999;DHT22;51319;52.162;5.302;2023-10-19T13:11:02;19.00;94.80
43999;DHT22;51319;52.162;5.302;2023-10-19T13:13:43;18.90;95.00
43999;DHT22;51319;52.162;5.302;2023-10-19T13:16:10;18.90;95.30
43999;DHT22;51319;52.162;5.302;2023-10-19T13:29:35;18.50;96.90
43999;DHT22;51319;52.162;5.302;2023-10-19T13:32:06;18.30;97.30
43999;DHT22;51319;52.162;5.302;2023-10-19T13:34:32;18.30;97.80
43999;DHT22;51319;52.162;5.302;2023-10-19T13:36:59;18.20;98.20
43999;DHT22;51319;52.162;5.302;2023-10-19T13:39:27;18.20;98.70
43999;DHT22;51319;52.162;5.302;2023-10-19T13:41:55;18.00;99.30
43999;DHT22;51319;52.162;5.302;2023-10-19T13:47:02;17.90;99.90
43999;DHT22;51319;52.162;5.302;2023-10-19T13:49:32;17.90;99.90
43999;DHT22;51319;52.162;5.302;2023-10-19T13:51:59;17.90;99.90
43999;DHT22;51319;52.162;5.302;2023-10-19T13:54:26;17.80;99.90
43999;DHT22;51319;52.162;5.302;2023-10-19T13:56:53;17.80;99.90
43999;DHT22;51319;52.162;5.302;2023-10-19T13:59:20;17.70;99.90
43999;DHT22;51319;52.162;5.302;2023-10-19T14:01:47;17.70;99.90
43999;DHT22;51319;52.162;5.302;2023-10-19T14:04:14;17.70;99.90
43999;DHT22;51319;52.162;5.302;2023-10-19T14:06:41;17.70;99.90
43999;DHT22;51319;52.162;5.302;2023-10-19T14:11:39;17.60;99.90
43999;DHT22;51319;52.162;5.302;2023-10-19T14:14:09;17.70;99.90
43999;DHT22;51319;52.162;5.302;2023-10-19T14:16:37;17.70;99.90
43999;DHT22;51319;52.162;5.302;2023-10-19T14:19:05;17.60;99.90
43999;DHT22;51319;52.162;5.302;2023-10-19T14:21:32;17.60;99.90
43999;DHT22;51319;52.162;5.302;2023-10-19T14:24:04;17.60;99.90
43999;DHT22;51319;52.162;5.302;2023-10-19T14:26:31;17.60;99.90
43999;DHT22;51319;52.162;5.302;2023-10-19T14:28:58;17.60;99.90
43999;DHT22;51319;52.162;5.302;2023-10-19T14:31:25;17.60;99.90
43999;DHT22;51319;52.162;5.302;2023-10-19T14:33:52;17.50;99.90
43999;DHT22;51319;52.162;5.302;2023-10-19T14:36:19;17.50;99.90
43999;DHT22;51319;52.162;5.302;2023-10-19T14:38:46;17.50;99.90
43999;DHT22;51319;52.162;5.302;2023-10-19T14:41:13;17.50;99.90
43999;DHT22;51319;52.162;5.302;2023-10-19T14:43:42;17.40;99.90
43999;DHT22;51319;52.162;5.302;2023-10-19T14:46:09;17.40;99.90
43999;DHT22;51319;52.162;5.302;2023-10-19T14:48:36;17.40;99.90
43999;DHT22;51319;52.162;5.302;2023-10-19T14:51:03;17.40;99.90
43999;DHT22;51319;52.162;5.302;2023-10-19T14:53:32;17.40;99.90
43999;DHT22;51319;52.162;5.302;2023-10-19T14:55:59;17.40;99.90
43999;DHT22;51319;52.162;5.302;2023-10-19T14:58:27;17.30;99.90
43999;DHT22;51319;52.162;5.302;2023-10-19T15:00:56;17.30;99.90
43999;DHT22;51319;52.162;5.302;2023-10-19T15:03:23;17.30;99.90
43999;DHT22;51319;52.162;5.302;2023-10-19T15:05:51;17.30;99.90
43999;DHT22;51319;52.162;5.302;2023-10-19T15:08:19;17.20;99.90
43999;DHT22;51319;52.162;5.302;2023-10-19T15:10:47;17.10;99.90
43999;DHT22;51319;52.162;5.302;2023-10-19T15:13:14;17.10;99.90
43999;DHT22;51319;52.162;5.302;2023-10-19T15:15:42;17.00;99.90
43999;DHT22;51319;52.162;5.302;2023-10-19T15:18:09;17.00;99.90
43999;DHT22;51319;52.162;5.302;2023-10-19T15:20:36;16.90;99.90
43999;DHT22;51319;52.162;5.302;2023-10-19T15:23:03;16.90;99.90
43999;DHT22;51319;52.162;5.302;2023-10-19T15:25:30;16.80;99.90
43999;DHT22;51319;52.162;5.302;2023-10-19T15:27:58;16.80;99.90
43999;DHT22;51319;52.162;5.302;2023-10-19T15:30:24;16.80;99.90
43999;DHT22;51319;52.162;5.302;2023-10-19T15:32:52;16.70;99.90
43999;DHT22;51319;52.162;5.302;2023-10-19T15:35:20;16.70;99.90
43999;DHT22;51319;52.162;5.302;2023-10-19T15:37:52;16.70;99.90
43999;DHT22;51319;52.162;5.302;2023-10-19T15:40:23;16.70;99.90
43999;DHT22;51319;52.162;5.302;2023-10-19T15:42:50;16.80;99.90
43999;DHT22;51319;52.162;5.302;2023-10-19T15:45:20;16.70;99.90
43999;DHT22;51319;52.162;5.302;2023-10-19T15:47:49;16.80;99.90
43999;DHT22;51319;52.162;5.302;2023-10-19T15:50:18;16.80;99.90
43999;DHT22;51319;52.162;5.302;2023-10-19T15:52:45;16.90;99.90
43999;DHT22;51319;52.162;5.302;2023-10-19T15:55:14;16.90;99.90
43999;DHT22;51319;52.162;5.302;2023-10-19T15:57:41;17.00;99.90
43999;DHT22;51319;52.162;5.302;2023-10-19T16:00:10;17.00;99.90
43999;DHT22;51319;52.162;5.302;2023-10-19T16:02:41;17.00;99.90
43999;DHT22;51319;52.162;5.302;2023-10-19T16:05:09;17.00;99.90
43999;DHT22;51319;52.162;5.302;2023-10-19T16:07:38;17.00;99.90
43999;DHT22;51319;52.162;5.302;2023-10-19T16:10:06;16.90;99.90
43999;DHT22;51319;52.162;5.302;2023-10-19T16:12:38;16.80;99.90
43999;DHT22;51319;52.162;5.302;2023-10-19T16:15:05;16.70;99.90
43999;DHT22;51319;52.162;5.302;2023-10-19T16:17:36;16.70;99.90
43999;DHT22;51319;52.162;5.302;2023-10-19T16:20:04;16.60;99.90
43999;DHT22;51319;52.162;5.302;2023-10-19T16:22:33;16.50;99.90
43999;DHT22;51319;52.162;5.302;2023-10-19T16:25:01;16.40;99.90
43999;DHT22;51319;52.162;5.302;2023-10-19T16:27:28;16.30;99.90
43999;DHT22;51319;52.162;5.302;2023-10-19T16:29:54;16.30;99.90
43999;DHT22;51319;52.162;5.302;2023-10-19T16:32:23;16.20;99.90
43999;DHT22;51319;52.162;5.302;2023-10-19T16:34:50;16.10;99.90
43999;DHT22;51319;52.162;5.302;2023-10-19T16:37:17;16.10;99.90
43999;DHT22;51319;52.162;5.302;2023-10-19T16:39:45;16.10;99.90
43999;DHT22;51319;52.162;5.302;2023-10-19T16:42:13;16.10;99.90
43999;DHT22;51319;52.162;5.302;2023-10-19T16:44:39;16.10;99.90
43999;DHT22;51319;52.162;5.302;2023-10-19T16:52:16;16.00;99.90
43999;DHT22;51319;52.162;5.302;2023-10-19T16:54:42;16.10;99.90
43999;DHT22;51319;52.162;5.302;2023-10-19T16:57:09;16.10;99.90
43999;DHT22;51319;52.162;5.302;2023-10-19T16:59:36;16.10;99.90
43999;DHT22;51319;52.162;5.302;2023-10-19T17:02:03;16.10;99.90
43999;DHT22;51319;52.162;5.302;2023-10-19T17:04:30;16.10;99.90
43999;DHT22;51319;52.162;5.302;2023-10-19T17:06:58;16.10;99.90
43999;DHT22;51319;52.162;5.302;2023-10-19T17:09:25;16.10;99.90
43999;DHT22;51319;52.162;5.302;2023-10-19T17:11:52;16.10;99.90
43999;DHT22;51319;52.162;5.302;2023-10-19T17:14:19;16.10;99.90
43999;DHT22;51319;52.162;5.302;2023-10-19T17:16:46;16.10;99.90
43999;DHT22;51319;52.162;5.302;2023-10-19T17:19:14;16.10;99.90
43999;DHT22;51319;52.162;5.302;2023-10-19T17:21:42;16.10;99.90
43999;DHT22;51319;52.162;5.302;2023-10-19T17:24:09;16.20;99.90
43999;DHT22;51319;52.162;5.302;2023-10-19T17:26:36;16.20;99.90
43999;DHT22;51319;52.162;5.302;2023-10-19T17:29:03;16.20;99.90